createdAt,value
2019-01-28T00:01:07.040Z,35.13
2019-01-28T00:03:36.743Z,40.30
2019-01-28T00:06:06.698Z,29.97
2019-01-28T00:08:36.270Z,31.60
2019-01-28T00:11:06.564Z,34.20
2019-01-28T00:13:36.279Z,29.47
2019-01-28T00:16:06.073Z,30.87
2019-01-28T00:18:35.967Z,28.07
2019-01-28T00:21:05.779Z,25.73
2019-01-28T00:23:35.900Z,28.47
2019-01-28T00:26:06.213Z,22.67
2019-01-28T00:28:36.520Z,21.37
2019-01-28T00:31:06.922Z,25.03
2019-01-28T00:33:36.611Z,20.40
2019-01-28T00:36:06.491Z,24.97
2019-01-28T00:38:36.151Z,15.90
2019-01-28T00:41:05.955Z,19.03
2019-01-28T00:43:36.101Z,17.93
2019-01-28T00:46:06.103Z,16.80
2019-01-28T00:48:36.094Z,16.27
2019-01-28T00:51:05.957Z,22.50
2019-01-28T00:53:35.577Z,16.83
2019-01-28T00:56:07.486Z,15.77
2019-01-28T00:58:37.390Z,15.97
2019-01-28T01:01:07.157Z,12.53
2019-01-28T01:03:36.967Z,15.27
2019-01-28T01:06:07.208Z,16.83
2019-01-28T01:08:37.206Z,16.10
2019-01-28T01:11:09.376Z,22.07
2019-01-28T01:13:39.560Z,16.43
2019-01-28T01:16:09.809Z,14.73
2019-01-28T01:18:39.366Z,19.60
2019-01-28T01:21:09.618Z,16.60
2019-01-28T01:23:39.182Z,17.53
2019-01-28T01:26:08.926Z,17.37
2019-01-28T01:28:38.622Z,14.83
2019-01-28T01:31:08.208Z,11.63
2019-01-28T01:33:38.591Z,15.63
2019-01-28T01:36:08.269Z,12.93
2019-01-28T01:38:38.207Z,16.53
2019-01-28T01:41:07.902Z,17.77
2019-01-28T01:43:37.842Z,18.90
2019-01-28T01:46:07.728Z,14.17
2019-01-28T01:48:37.657Z,13.27
2019-01-28T01:51:08.015Z,16.53
2019-01-28T01:53:38.301Z,16.70
2019-01-28T01:56:08.445Z,16.27
2019-01-28T01:58:38.349Z,13.47
2019-01-28T02:01:08.556Z,11.93
2019-01-28T02:03:38.213Z,10.67
2019-01-28T02:06:07.861Z,11.20
2019-01-28T02:08:37.803Z,12.17
2019-01-28T02:11:07.973Z,17.17
2019-01-28T02:13:37.866Z,14.00
2019-01-28T02:16:07.536Z,13.20
2019-01-28T02:18:37.520Z,14.43
2019-01-28T02:21:07.236Z,12.73
2019-01-28T02:23:37.177Z,15.87
2019-01-28T02:26:07.364Z,16.50
2019-01-28T02:28:37.216Z,13.87
2019-01-28T02:31:06.913Z,12.73
2019-01-28T02:33:36.672Z,9.97
2019-01-28T02:36:06.855Z,12.73
2019-01-28T02:38:37.109Z,10.97
2019-01-28T02:41:06.872Z,10.83
2019-01-28T02:43:36.477Z,12.93
2019-01-28T02:46:06.739Z,10.63
2019-01-28T02:48:36.390Z,8.97
2019-01-28T02:51:05.958Z,11.23
2019-01-28T02:53:35.578Z,8.77
2019-01-28T02:56:05.472Z,8.90
2019-01-28T02:58:35.096Z,11.73
2019-01-28T03:01:04.950Z,9.07
2019-01-28T03:03:34.551Z,9.30
2019-01-28T03:06:04.177Z,9.30
2019-01-28T03:08:34.055Z,9.20
2019-01-28T03:11:03.710Z,7.13
2019-01-28T03:13:33.322Z,6.47
2019-01-28T03:16:03.334Z,4.87
2019-01-28T03:18:32.885Z,7.37
2019-01-28T03:21:02.489Z,7.00
2019-01-28T03:23:32.251Z,8.67
2019-01-28T03:26:01.872Z,10.13
2019-01-28T03:28:31.469Z,7.40
2019-01-28T03:31:01.125Z,6.80
2019-01-28T03:33:30.715Z,7.77
2019-01-28T03:36:00.335Z,6.40
2019-01-28T03:38:30.208Z,8.83
2019-01-28T03:40:59.893Z,8.43
2019-01-28T03:43:29.548Z,6.43
2019-01-28T03:45:59.176Z,8.63
2019-01-28T03:48:29.230Z,7.60
2019-01-28T03:50:58.826Z,9.03
2019-01-28T03:53:28.465Z,6.60
2019-01-28T03:55:58.047Z,7.83
2019-01-28T03:58:27.726Z,7.97
2019-01-28T04:00:57.415Z,4.77
2019-01-28T04:03:27.046Z,6.77
2019-01-28T04:05:56.689Z,6.53
2019-01-28T04:08:28.676Z,10.07
2019-01-28T04:10:58.296Z,9.60
2019-01-28T04:13:27.996Z,7.97
2019-01-28T04:15:57.665Z,7.53
2019-01-28T04:18:27.323Z,8.13
2019-01-28T04:20:56.992Z,11.13
2019-01-28T04:23:26.926Z,7.67
2019-01-28T04:25:56.555Z,6.00
2019-01-28T04:28:26.461Z,7.03
2019-01-28T04:30:56.520Z,7.57
2019-01-28T04:33:26.176Z,6.00
2019-01-28T04:35:56.351Z,8.43
2019-01-28T04:38:26.008Z,5.20
2019-01-28T04:40:56.186Z,9.50
2019-01-28T04:43:25.894Z,9.37
2019-01-28T04:45:55.839Z,5.40
2019-01-28T04:48:25.493Z,8.40
2019-01-28T04:50:55.177Z,4.93
2019-01-28T04:53:24.795Z,11.07
2019-01-28T04:55:54.489Z,10.47
2019-01-28T04:58:24.093Z,7.63
2019-01-28T05:00:53.800Z,8.73
2019-01-28T05:03:23.729Z,9.47
2019-01-28T05:05:53.364Z,10.40
2019-01-28T05:08:23.500Z,10.43
2019-01-28T05:10:53.557Z,9.93
2019-01-28T05:13:23.216Z,9.83
2019-01-28T05:15:52.820Z,11.37
2019-01-28T05:18:22.995Z,12.17
2019-01-28T05:20:52.679Z,11.00
2019-01-28T05:23:22.294Z,11.97
2019-01-28T05:25:51.966Z,10.77
2019-01-28T05:28:21.590Z,10.43
2019-01-28T05:30:51.182Z,13.37
2019-01-28T05:33:20.857Z,12.50
2019-01-28T05:35:50.929Z,12.13
2019-01-28T05:38:20.564Z,10.17
2019-01-28T05:40:50.257Z,13.57
2019-01-28T05:43:20.166Z,9.27
2019-01-28T05:45:49.887Z,8.53
2019-01-28T05:48:19.610Z,11.57
2019-01-28T05:50:49.238Z,14.20
2019-01-28T05:53:18.898Z,12.07
2019-01-28T05:55:48.644Z,9.97
2019-01-28T05:58:18.316Z,12.33
2019-01-28T06:00:47.926Z,10.67
2019-01-28T06:03:18.031Z,12.53
2019-01-28T06:05:47.665Z,7.87
2019-01-28T06:08:17.276Z,11.97
2019-01-28T06:10:46.971Z,12.83
2019-01-28T06:13:16.608Z,11.33
2019-01-28T06:15:46.207Z,12.50
2019-01-28T06:18:16.318Z,10.70
2019-01-28T06:20:46.044Z,10.77
2019-01-28T06:23:15.742Z,14.43
2019-01-28T06:25:45.384Z,14.97
2019-01-28T06:28:15.421Z,12.43
2019-01-28T06:30:45.621Z,12.30
2019-01-28T06:33:15.333Z,14.83
2019-01-28T06:35:45.182Z,15.47
2019-01-28T06:38:15.423Z,15.57
2019-01-28T06:40:45.135Z,13.10
2019-01-28T06:43:14.793Z,17.70
2019-01-28T06:45:45.482Z,15.60
2019-01-28T06:48:15.520Z,16.27
2019-01-28T06:50:45.111Z,13.33
2019-01-28T06:53:15.228Z,17.00
2019-01-28T06:55:44.832Z,15.53
2019-01-28T06:58:14.513Z,15.27
2019-01-28T07:00:44.125Z,15.07
2019-01-28T07:03:14.159Z,13.77
2019-01-28T07:05:43.868Z,15.27
2019-01-28T07:08:13.822Z,14.30
2019-01-28T07:10:43.811Z,14.87
2019-01-28T07:13:13.972Z,15.47
2019-01-28T07:15:43.598Z,14.67
2019-01-28T07:18:13.535Z,12.27
2019-01-28T07:20:43.446Z,15.57
2019-01-28T07:23:13.570Z,14.13
2019-01-28T07:25:43.385Z,14.77
2019-01-28T07:28:13.455Z,16.30
2019-01-28T07:30:43.282Z,14.80
2019-01-28T07:33:13.518Z,17.20
2019-01-28T07:35:43.659Z,16.37
2019-01-28T07:38:13.754Z,16.23
2019-01-28T07:40:43.758Z,17.50
2019-01-28T07:43:13.604Z,18.77
2019-01-28T07:45:45.454Z,18.87
2019-01-28T07:48:15.449Z,17.90
2019-01-28T07:50:45.515Z,17.70
2019-01-28T07:53:15.442Z,18.77
2019-01-28T07:55:45.689Z,17.97
2019-01-28T07:58:15.853Z,21.33
2019-01-28T08:00:46.107Z,20.87
2019-01-28T08:03:16.183Z,20.43
2019-01-28T08:05:46.420Z,21.67
2019-01-28T08:08:16.503Z,25.90
2019-01-28T08:10:46.718Z,22.20
2019-01-28T08:13:16.782Z,23.23
2019-01-28T08:15:46.764Z,23.83
2019-01-28T08:18:16.571Z,21.60
2019-01-28T08:20:46.619Z,28.50
2019-01-28T08:23:16.381Z,21.83
2019-01-28T08:25:46.398Z,23.43
2019-01-28T08:28:16.776Z,25.23
2019-01-28T08:30:47.066Z,24.40
2019-01-28T08:33:17.117Z,26.70
2019-01-28T08:35:47.170Z,25.73
2019-01-28T08:38:16.840Z,25.43
2019-01-28T08:40:46.879Z,23.53
2019-01-28T08:43:16.815Z,25.40
2019-01-28T08:45:47.196Z,25.60
2019-01-28T08:48:18.393Z,26.33
2019-01-28T08:50:48.818Z,24.77
2019-01-28T08:53:18.839Z,25.70
2019-01-28T08:55:50.421Z,24.17
2019-01-28T08:58:21.486Z,22.13
2019-01-28T09:00:51.596Z,22.67
2019-01-28T09:03:21.559Z,20.90
2019-01-28T09:05:51.474Z,24.73
2019-01-28T09:08:21.538Z,22.70
2019-01-28T09:10:51.923Z,24.87
2019-01-28T09:13:22.125Z,21.10
2019-01-28T09:15:52.102Z,23.47
2019-01-28T09:18:26.447Z,23.77
2019-01-28T09:20:53.435Z,21.07
2019-01-28T09:23:23.490Z,25.90
2019-01-28T09:25:53.384Z,19.80
2019-01-28T09:28:23.488Z,23.77
2019-01-28T09:30:53.513Z,19.43
2019-01-28T09:33:23.511Z,23.93
2019-01-28T09:35:53.377Z,20.90
2019-01-28T09:38:23.533Z,20.87
2019-01-28T09:40:53.447Z,22.93
2019-01-28T09:43:23.367Z,26.87
2019-01-28T09:45:53.659Z,25.93
2019-01-28T09:48:23.810Z,20.40
2019-01-28T09:50:53.934Z,23.03
2019-01-28T09:53:29.234Z,22.50
2019-01-28T09:55:56.079Z,20.27
2019-01-28T09:58:26.055Z,20.07
2019-01-28T10:00:56.030Z,20.30
2019-01-28T10:03:26.079Z,19.97
2019-01-28T10:05:56.065Z,18.97
2019-01-28T10:08:25.932Z,23.87
2019-01-28T10:10:55.927Z,18.87
2019-01-28T10:13:26.155Z,26.37
2019-01-28T10:15:56.144Z,23.80
2019-01-28T10:18:26.173Z,23.47
2019-01-28T10:20:56.179Z,24.53
2019-01-28T10:23:26.268Z,25.20
2019-01-28T10:25:57.889Z,20.70
2019-01-28T10:28:27.881Z,20.67
2019-01-28T10:30:57.606Z,21.37
2019-01-28T10:33:27.547Z,25.53
2019-01-28T10:35:57.881Z,22.40
2019-01-28T10:38:27.678Z,21.63
2019-01-28T10:40:57.767Z,20.30
2019-01-28T10:43:27.606Z,21.67
2019-01-28T10:45:57.825Z,22.20
2019-01-28T10:48:27.869Z,19.93
2019-01-28T10:50:57.820Z,20.33
2019-01-28T10:53:27.897Z,21.07
2019-01-28T10:55:57.877Z,25.67
2019-01-28T10:58:28.346Z,23.63
2019-01-28T11:00:58.346Z,20.50
2019-01-28T11:03:28.258Z,25.33
2019-01-28T11:05:58.276Z,22.20
2019-01-28T11:08:28.445Z,26.93
2019-01-28T11:10:58.609Z,23.57
2019-01-28T11:13:29.022Z,22.13
2019-01-28T11:15:58.976Z,20.83
2019-01-28T11:18:30.561Z,23.20
2019-01-28T11:21:00.477Z,24.80
2019-01-28T11:23:32.226Z,26.23
2019-01-28T11:26:02.599Z,22.43
2019-01-28T11:28:32.607Z,27.20
2019-01-28T11:31:10.284Z,23.97
2019-01-28T11:33:40.237Z,23.37
2019-01-28T11:36:11.396Z,26.17
2019-01-28T11:38:41.809Z,27.63
2019-01-28T11:41:12.325Z,26.13
2019-01-28T11:43:42.493Z,24.00
2019-01-28T11:46:12.508Z,28.83
2019-01-28T11:48:42.094Z,25.07
2019-01-28T11:51:12.320Z,26.13
2019-01-28T11:53:42.097Z,25.03
2019-01-28T11:56:12.049Z,23.27
2019-01-28T11:58:42.415Z,24.73
2019-01-28T12:01:29.058Z,29.93
2019-01-28T12:03:59.117Z,24.57
2019-01-28T12:06:29.322Z,29.87
2019-01-28T12:08:59.427Z,24.10
2019-01-28T12:11:29.444Z,25.07
2019-01-28T12:14:02.197Z,26.83
2019-01-28T12:16:32.229Z,23.80
2019-01-28T12:19:02.364Z,27.00
2019-01-28T12:21:32.643Z,25.63
2019-01-28T12:24:02.329Z,25.07
2019-01-28T12:26:32.302Z,23.37
2019-01-28T12:29:02.210Z,23.47
2019-01-28T12:31:32.237Z,32.23
2019-01-28T12:34:02.275Z,32.50
2019-01-28T12:36:32.352Z,32.77
2019-01-28T12:39:02.389Z,34.10
2019-01-28T12:41:32.498Z,29.40
2019-01-28T12:44:02.497Z,28.83
2019-01-28T12:46:32.587Z,26.27
2019-01-28T12:49:02.740Z,25.27
2019-01-28T12:51:32.603Z,27.40
2019-01-28T12:54:02.861Z,30.77
2019-01-28T12:56:32.555Z,26.37
2019-01-28T12:59:08.976Z,25.97
2019-01-28T13:01:34.432Z,27.83
2019-01-28T13:04:04.672Z,24.80
2019-01-28T13:06:34.544Z,31.23
2019-01-28T13:09:06.123Z,32.47
2019-01-28T13:11:36.215Z,33.93
2019-01-28T13:14:06.339Z,30.47
2019-01-28T13:16:36.348Z,29.40
2019-01-28T13:19:06.712Z,32.73
2019-01-28T13:21:37.006Z,27.47
2019-01-28T13:24:07.099Z,33.33
2019-01-28T13:26:37.235Z,29.03
2019-01-28T13:29:07.148Z,31.00
2019-01-28T13:31:38.097Z,24.77
2019-01-28T13:34:08.190Z,35.40
2019-01-28T13:36:38.472Z,30.37
2019-01-28T13:39:09.304Z,32.47
2019-01-28T13:41:39.991Z,21.63
2019-01-28T13:44:10.052Z,26.17
2019-01-28T13:46:40.115Z,25.27
2019-01-28T13:49:10.183Z,25.90
2019-01-28T13:51:40.422Z,29.40
2019-01-28T13:54:10.493Z,30.37
2019-01-28T13:56:40.557Z,29.90
2019-01-28T13:59:16.103Z,29.47
2019-01-28T14:01:42.165Z,30.23
2019-01-28T14:04:12.305Z,28.60
2019-01-28T14:06:42.528Z,25.20
2019-01-28T14:09:12.565Z,29.23
2019-01-28T14:11:42.506Z,27.67
2019-01-28T14:14:12.695Z,28.67
2019-01-28T14:16:42.689Z,31.70
2019-01-28T14:19:12.584Z,27.67
2019-01-28T14:21:42.964Z,30.57
2019-01-28T14:24:13.133Z,24.03
2019-01-28T14:26:43.285Z,25.27
2019-01-28T14:29:13.519Z,34.97
2019-01-28T14:31:43.724Z,30.50
2019-01-28T14:34:13.742Z,31.20
2019-01-28T14:36:43.898Z,28.40
2019-01-28T14:39:14.032Z,27.43
2019-01-28T14:41:43.803Z,29.03
2019-01-28T14:44:13.920Z,31.17
2019-01-28T14:46:43.845Z,28.33
2019-01-28T14:49:13.793Z,26.00
2019-01-28T14:51:43.764Z,24.20
2019-01-28T14:54:13.395Z,26.10
2019-01-28T14:56:42.957Z,31.50
2019-01-28T14:59:12.706Z,29.80
2019-01-28T15:01:42.827Z,26.40
2019-01-28T15:04:12.712Z,26.93
2019-01-28T15:06:42.402Z,27.43
2019-01-28T15:09:12.907Z,29.10
2019-01-28T15:11:42.711Z,31.57
2019-01-28T15:14:12.399Z,30.20
2019-01-28T15:16:41.993Z,28.90
2019-01-28T15:19:11.623Z,30.20
2019-01-28T15:21:41.321Z,26.23
2019-01-28T15:24:10.970Z,33.00
2019-01-28T15:26:40.606Z,22.83
2019-01-28T15:29:10.426Z,30.70
2019-01-28T15:31:40.034Z,27.73
2019-01-28T15:34:09.718Z,33.90
2019-01-28T15:36:39.368Z,30.93
2019-01-28T15:39:10.935Z,29.83
2019-01-28T15:41:40.855Z,33.07
2019-01-28T15:44:10.543Z,33.57
2019-01-28T15:46:40.193Z,34.67
2019-01-28T15:49:09.896Z,28.70
2019-01-28T15:51:39.597Z,30.23
2019-01-28T15:54:09.218Z,27.20
2019-01-28T15:56:38.862Z,28.30
2019-01-28T15:59:08.523Z,36.60
2019-01-28T16:01:38.250Z,30.33
2019-01-28T16:04:07.848Z,30.97
2019-01-28T16:06:37.529Z,30.53
2019-01-28T16:09:09.831Z,29.17
2019-01-28T16:11:39.447Z,28.47
2019-01-28T16:14:09.080Z,34.00
2019-01-28T16:16:38.727Z,28.57
2019-01-28T16:19:08.330Z,31.63
2019-01-28T16:21:38.036Z,31.00
2019-01-28T16:24:07.623Z,33.03
2019-01-28T16:26:37.235Z,31.00
2019-01-28T16:29:06.970Z,29.23
2019-01-28T16:31:37.061Z,29.53
2019-01-28T16:34:06.788Z,31.43
2019-01-28T16:36:36.389Z,34.70
2019-01-28T16:39:08.453Z,30.63
2019-01-28T16:41:38.510Z,31.70
2019-01-28T16:44:08.450Z,27.90
2019-01-28T16:46:39.434Z,37.10
2019-01-28T16:49:09.478Z,27.87
2019-01-28T16:51:39.113Z,30.97
2019-01-28T16:54:08.717Z,33.27
2019-01-28T16:56:38.328Z,28.90
2019-01-28T16:59:07.935Z,33.33
2019-01-28T17:01:37.843Z,32.87
2019-01-28T17:04:07.803Z,35.83
2019-01-28T17:06:37.935Z,29.80
2019-01-28T17:09:09.227Z,33.67
2019-01-28T17:11:38.836Z,38.20
2019-01-28T17:14:08.475Z,38.00
2019-01-28T17:16:38.305Z,36.60
2019-01-28T17:19:07.963Z,34.63
2019-01-28T17:21:38.089Z,35.90
2019-01-28T17:24:07.808Z,34.37
2019-01-28T17:26:37.402Z,43.97
2019-01-28T17:29:07.127Z,34.33
2019-01-28T17:31:37.288Z,40.00
2019-01-28T17:34:06.893Z,35.87
2019-01-28T17:36:37.023Z,36.90
2019-01-28T17:39:08.700Z,39.23
2019-01-28T17:41:38.575Z,39.47
2019-01-28T17:44:08.168Z,41.60
2019-01-28T17:46:37.831Z,40.10
2019-01-28T17:49:07.456Z,40.47
2019-01-28T17:51:37.230Z,39.00
2019-01-28T17:54:06.947Z,36.87
2019-01-28T17:56:36.538Z,39.70
2019-01-28T17:59:06.365Z,43.23
2019-01-28T18:01:36.283Z,40.97
2019-01-28T18:04:06.286Z,51.27
2019-01-28T18:06:36.281Z,37.57
2019-01-28T18:09:09.235Z,52.60
2019-01-28T18:11:39.140Z,43.13
2019-01-28T18:14:08.910Z,38.50
2019-01-28T18:16:38.532Z,39.07
2019-01-28T18:19:08.717Z,39.00
2019-01-28T18:21:38.387Z,37.67
2019-01-28T18:24:07.968Z,37.67
2019-01-28T18:26:37.576Z,33.53
2019-01-28T18:29:07.312Z,39.83
2019-01-28T18:31:36.946Z,39.30
2019-01-28T18:34:06.900Z,37.93
2019-01-28T18:36:36.548Z,45.37
2019-01-28T18:39:10.105Z,42.47
2019-01-28T18:41:39.872Z,38.53
2019-01-28T18:44:09.885Z,49.07
2019-01-28T18:46:39.813Z,37.67
2019-01-28T18:49:09.809Z,43.07
2019-01-28T18:51:39.387Z,43.73
2019-01-28T18:54:08.982Z,42.03
2019-01-28T18:56:38.579Z,49.30
2019-01-28T18:59:08.162Z,45.87
2019-01-28T19:01:37.761Z,43.73
2019-01-28T19:04:07.391Z,39.37
2019-01-28T19:07:11.081Z,45.93
2019-01-28T19:09:49.445Z,43.57
2019-01-28T19:12:35.926Z,46.30
2019-01-28T19:15:21.982Z,46.23
2019-01-28T19:18:10.499Z,43.73
2019-01-28T19:20:49.295Z,41.13
2019-01-28T19:23:19.321Z,44.30
2019-01-28T19:25:49.027Z,39.40
2019-01-28T19:28:18.707Z,40.50
2019-01-28T19:30:48.375Z,41.07
2019-01-28T19:33:18.998Z,40.97
2019-01-28T19:35:48.674Z,43.87
2019-01-28T19:38:18.313Z,40.03
2019-01-28T19:40:48.029Z,41.10
2019-01-28T19:43:17.842Z,39.60
2019-01-28T19:45:47.947Z,40.20
2019-01-28T19:48:17.570Z,35.10
2019-01-28T19:50:47.206Z,37.30
2019-01-28T19:53:16.859Z,38.03
2019-01-28T19:55:46.450Z,41.30
2019-01-28T19:58:16.047Z,37.00
2019-01-28T20:00:45.783Z,36.13
2019-01-28T20:03:16.430Z,36.07
2019-01-28T20:05:46.134Z,33.80
2019-01-28T20:08:16.098Z,34.97
2019-01-28T20:10:45.708Z,37.70
2019-01-28T20:13:15.365Z,34.67
2019-01-28T20:15:45.011Z,35.43
2019-01-28T20:18:15.167Z,34.67
2019-01-28T20:20:44.828Z,33.80
2019-01-28T20:23:15.241Z,33.67
2019-01-28T20:25:44.833Z,36.37
2019-01-28T20:28:14.403Z,34.53
2019-01-28T20:30:44.048Z,36.17
2019-01-28T20:33:13.659Z,37.27
2019-01-28T20:35:43.401Z,36.63
2019-01-28T20:38:15.919Z,36.97
2019-01-28T20:40:44.964Z,39.13
2019-01-28T20:43:14.689Z,43.67
2019-01-28T20:45:45.200Z,40.80
2019-01-28T20:48:15.401Z,37.10
2019-01-28T20:50:46.080Z,37.40
2019-01-28T20:53:17.742Z,40.43
2019-01-28T20:55:47.757Z,40.77
2019-01-28T20:58:17.384Z,40.20
2019-01-28T21:00:47.413Z,40.07
2019-01-28T21:03:17.154Z,40.23
2019-01-28T21:05:47.217Z,38.63
2019-01-28T21:08:16.931Z,34.97
2019-01-28T21:10:47.581Z,38.77
2019-01-28T21:13:17.154Z,36.37
2019-01-28T21:15:46.797Z,43.37
2019-01-28T21:18:16.562Z,41.43
2019-01-28T21:20:46.227Z,41.50
2019-01-28T21:23:16.610Z,40.53
2019-01-28T21:25:46.794Z,36.13
2019-01-28T21:28:16.582Z,39.17
2019-01-28T21:30:46.821Z,38.30
2019-01-28T21:33:16.826Z,37.07
2019-01-28T21:36:14.220Z,42.57
2019-01-28T21:38:49.395Z,42.20
2019-01-28T21:41:19.543Z,40.40
2019-01-28T21:43:49.133Z,55.03
2019-01-28T21:46:19.449Z,42.70
2019-01-28T21:48:49.884Z,45.93
2019-01-28T21:51:19.504Z,39.97
2019-01-28T21:53:49.149Z,47.07
2019-01-28T21:56:18.779Z,47.80
2019-01-28T21:58:48.528Z,40.50
2019-01-28T22:01:18.330Z,41.17
2019-01-28T22:03:48.095Z,40.57
2019-01-28T22:06:17.924Z,48.43
2019-01-28T22:08:47.742Z,39.90
2019-01-28T22:11:17.333Z,41.30
2019-01-28T22:13:47.348Z,53.60
2019-01-28T22:16:16.988Z,76.70
2019-01-28T22:18:46.618Z,55.60
2019-01-28T22:21:16.229Z,93.27
2019-01-28T22:23:45.836Z,69.07
2019-01-28T22:26:15.979Z,66.57
2019-01-28T22:28:45.886Z,51.13
2019-01-28T22:31:15.543Z,59.50
2019-01-28T22:33:45.259Z,83.77
2019-01-28T22:36:14.921Z,57.07
2019-01-28T22:38:45.417Z,77.30
2019-01-28T22:41:16.189Z,54.87
2019-01-28T22:43:45.845Z,63.93
2019-01-28T22:46:15.494Z,92.87
2019-01-28T22:48:45.287Z,75.10
2019-01-28T22:51:14.977Z,57.70
2019-01-28T22:53:44.562Z,84.30
2019-01-28T22:56:14.718Z,75.77
2019-01-28T22:58:44.348Z,100.00
2019-01-28T23:01:33.121Z,81.63
2019-01-28T23:04:02.874Z,54.73
2019-01-28T23:06:32.472Z,42.83
2019-01-28T23:09:02.103Z,52.20
2019-01-28T23:11:31.987Z,49.17
2019-01-28T23:14:01.588Z,62.60
2019-01-28T23:16:31.870Z,48.60
2019-01-28T23:19:01.918Z,71.47
2019-01-28T23:21:31.863Z,38.53
2019-01-28T23:24:01.820Z,36.17
2019-01-28T23:26:31.472Z,64.27
2019-01-28T23:29:01.320Z,101.03
2019-01-28T23:31:31.266Z,58.43
2019-01-28T23:34:01.326Z,51.40
2019-01-28T23:36:30.977Z,33.03
2019-01-28T23:39:00.709Z,44.27
2019-01-28T23:41:30.785Z,28.07
2019-01-28T23:44:00.602Z,42.47
2019-01-28T23:46:30.614Z,60.83
2019-01-28T23:49:00.448Z,37.50
2019-01-28T23:51:30.046Z,46.73
2019-01-28T23:53:59.916Z,42.00
2019-01-28T23:56:29.529Z,26.33
2019-01-28T23:58:59.158Z,19.07
